sensor_id;sensor_type;location;lat;lon;timestamp;temperature;humidity
54642;DHT22;40536;53.194;5.728;2022-09-09T00:02:22;13.10;99.90
54642;DHT22;40536;53.194;5.728;2022-09-09T00:07:52;13.20;99.90
54642;DHT22;40536;53.194;5.728;2022-09-09T00:18:44;13.20;99.90
54642;DHT22;40536;53.194;5.728;2022-09-09T00:21:16;13.20;99.90
54642;DHT22;40536;53.194;5.728;2022-09-09T00:23:54;13.20;99.90
54642;DHT22;40536;53.194;5.728;2022-09-09T00:26:32;13.20;99.90
54642;DHT22;40536;53.194;5.728;2022-09-09T00:29:10;13.30;99.90
54642;DHT22;40536;53.194;5.728;2022-09-09T00:31:40;13.30;99.90
54642;DHT22;40536;53.194;5.728;2022-09-09T00:34:13;13.30;99.90
54642;DHT22;40536;53.194;5.728;2022-09-09T00:36:41;13.30;99.90
54642;DHT22;40536;53.194;5.728;2022-09-09T00:39:23;13.20;99.90
54642;DHT22;40536;53.194;5.728;2022-09-09T00:45:15;13.30;99.90
54642;DHT22;40536;53.194;5.728;2022-09-09T00:47:51;13.30;99.90
54642;DHT22;40536;53.194;5.728;2022-09-09T00:50:56;13.30;99.90
54642;DHT22;40536;53.194;5.728;2022-09-09T00:56:23;13.20;99.90
54642;DHT22;40536;53.194;5.728;2022-09-09T01:01:35;12.70;99.90
54642;DHT22;40536;53.194;5.728;2022-09-09T01:04:06;13.20;99.90
54642;DHT22;40536;53.194;5.728;2022-09-09T01:06:36;13.20;99.90
54642;DHT22;40536;53.194;5.728;2022-09-09T01:09:24;13.20;99.90
54642;DHT22;40536;53.194;5.728;2022-09-09T01:12:14;13.20;99.90
54642;DHT22;40536;53.194;5.728;2022-09-09T01:14:50;13.40;99.90
54642;DHT22;40536;53.194;5.728;2022-09-09T01:17:27;13.20;99.90
54642;DHT22;40536;53.194;5.728;2022-09-09T01:20:03;13.20;99.90
54642;DHT22;40536;53.194;5.728;2022-09-09T01:23:23;13.20;99.90
54642;DHT22;40536;53.194;5.728;2022-09-09T01:28:26;13.30;99.90
54642;DHT22;40536;53.194;5.728;2022-09-09T01:30:53;13.30;99.90
54642;DHT22;40536;53.194;5.728;2022-09-09T01:33:20;13.50;99.90
54642;DHT22;40536;53.194;5.728;2022-09-09T01:35:48;13.40;99.90
54642;DHT22;40536;53.194;5.728;2022-09-09T01:38:17;13.40;99.90
54642;DHT22;40536;53.194;5.728;2022-09-09T01:40:43;13.40;99.90
54642;DHT22;40536;53.194;5.728;2022-09-09T01:43:09;13.40;99.90
54642;DHT22;40536;53.194;5.728;2022-09-09T01:45:35;13.30;99.90
54642;DHT22;40536;53.194;5.728;2022-09-09T01:48:03;13.30;99.90
54642;DHT22;40536;53.194;5.728;2022-09-09T01:50:29;13.30;99.90
54642;DHT22;40536;53.194;5.728;2022-09-09T01:52:59;13.30;99.90
54642;DHT22;40536;53.194;5.728;2022-09-09T01:55:40;13.30;99.90
54642;DHT22;40536;53.194;5.728;2022-09-09T02:03:36;13.20;99.90
54642;DHT22;40536;53.194;5.728;2022-09-09T02:06:25;13.20;99.90
54642;DHT22;40536;53.194;5.728;2022-09-09T02:08:57;13.20;99.90
54642;DHT22;40536;53.194;5.728;2022-09-09T02:11:25;13.30;99.90
54642;DHT22;40536;53.194;5.728;2022-09-09T02:14:12;13.30;99.90
54642;DHT22;40536;53.194;5.728;2022-09-09T02:19:46;13.30;99.90
54642;DHT22;40536;53.194;5.728;2022-09-09T02:22:16;13.20;99.90
54642;DHT22;40536;53.194;5.728;2022-09-09T02:24:44;13.20;99.90
54642;DHT22;40536;53.194;5.728;2022-09-09T02:27:12;13.20;99.90
54642;DHT22;40536;53.194;5.728;2022-09-09T02:29:42;13.10;99.90
54642;DHT22;40536;53.194;5.728;2022-09-09T02:32:17;13.00;99.90
54642;DHT22;40536;53.194;5.728;2022-09-09T02:34:54;13.00;99.90
54642;DHT22;40536;53.194;5.728;2022-09-09T02:37:24;13.00;99.90
54642;DHT22;40536;53.194;5.728;2022-09-09T02:39:54;13.00;99.90
54642;DHT22;40536;53.194;5.728;2022-09-09T02:42:20;13.00;99.90
54642;DHT22;40536;53.194;5.728;2022-09-09T02:44:46;12.90;99.90
54642;DHT22;40536;53.194;5.728;2022-09-09T02:47:29;12.90;99.90
54642;DHT22;40536;53.194;5.728;2022-09-09T02:52:38;12.80;99.90
54642;DHT22;40536;53.194;5.728;2022-09-09T02:55:17;12.80;99.90
54642;DHT22;40536;53.194;5.728;2022-09-09T02:57:45;12.70;99.90
54642;DHT22;40536;53.194;5.728;2022-09-09T03:00:12;12.70;99.90
54642;DHT22;40536;53.194;5.728;2022-09-09T03:02:38;12.70;99.90
54642;DHT22;40536;53.194;5.728;2022-09-09T03:05:05;12.70;99.90
54642;DHT22;40536;53.194;5.728;2022-09-09T03:07:31;12.70;99.90
54642;DHT22;40536;53.194;5.728;2022-09-09T03:09:57;12.80;99.90
54642;DHT22;40536;53.194;5.728;2022-09-09T03:12:23;12.70;99.90
54642;DHT22;40536;53.194;5.728;2022-09-09T03:14:49;12.70;99.90
54642;DHT22;40536;53.194;5.728;2022-09-09T03:17:15;12.70;99.90
54642;DHT22;40536;53.194;5.728;2022-09-09T03:19:42;12.70;99.90
54642;DHT22;40536;53.194;5.728;2022-09-09T03:22:10;12.70;99.90
54642;DHT22;40536;53.194;5.728;2022-09-09T03:24:36;12.70;99.90
54642;DHT22;40536;53.194;5.728;2022-09-09T03:27:02;12.60;99.90
54642;DHT22;40536;53.194;5.728;2022-09-09T03:29:27;12.60;99.90
54642;DHT22;40536;53.194;5.728;2022-09-09T03:31:53;12.60;99.90
54642;DHT22;40536;53.194;5.728;2022-09-09T03:34:19;12.60;99.90
54642;DHT22;40536;53.194;5.728;2022-09-09T03:36:44;12.80;99.90
54642;DHT22;40536;53.194;5.728;2022-09-09T03:39:10;12.80;99.90
54642;DHT22;40536;53.194;5.728;2022-09-09T03:41:36;12.90;99.90
54642;DHT22;40536;53.194;5.728;2022-09-09T03:44:02;13.00;99.90
54642;DHT22;40536;53.194;5.728;2022-09-09T03:46:28;13.50;99.90
54642;DHT22;40536;53.194;5.728;2022-09-09T03:48:54;13.20;99.90
54642;DHT22;40536;53.194;5.728;2022-09-09T03:51:19;13.20;99.90
54642;DHT22;40536;53.194;5.728;2022-09-09T03:53:45;13.20;99.90
54642;DHT22;40536;53.194;5.728;2022-09-09T03:56:11;13.20;99.90
54642;DHT22;40536;53.194;5.728;2022-09-09T03:58:37;13.10;99.90
54642;DHT22;40536;53.194;5.728;2022-09-09T04:01:06;13.10;99.90
54642;DHT22;40536;53.194;5.728;2022-09-09T04:03:34;13.70;99.90
54642;DHT22;40536;53.194;5.728;2022-09-09T04:06:01;13.20;99.90
54642;DHT22;40536;53.194;5.728;2022-09-09T04:08:29;13.10;99.90
54642;DHT22;40536;53.194;5.728;2022-09-09T04:10:57;13.10;99.90
54642;DHT22;40536;53.194;5.728;2022-09-09T04:13:24;13.60;99.90
54642;DHT22;40536;53.194;5.728;2022-09-09T04:15:51;13.10;99.90
54642;DHT22;40536;53.194;5.728;2022-09-09T04:18:18;13.10;99.90
54642;DHT22;40536;53.194;5.728;2022-09-09T04:20:47;13.10;99.90
54642;DHT22;40536;53.194;5.728;2022-09-09T04:23:13;13.10;99.90
54642;DHT22;40536;53.194;5.728;2022-09-09T04:25:47;13.10;99.90
54642;DHT22;40536;53.194;5.728;2022-09-09T04:28:14;13.10;99.90
54642;DHT22;40536;53.194;5.728;2022-09-09T04:30:40;13.10;99.90
54642;DHT22;40536;53.194;5.728;2022-09-09T04:33:07;13.10;99.90
54642;DHT22;40536;53.194;5.728;2022-09-09T04:35:33;13.20;99.90
54642;DHT22;40536;53.194;5.728;2022-09-09T04:37:59;13.10;99.90
54642;DHT22;40536;53.194;5.728;2022-09-09T04:40:25;13.10;99.90
54642;DHT22;40536;53.194;5.728;2022-09-09T04:42:51;13.10;99.90
54642;DHT22;40536;53.194;5.728;2022-09-09T04:45:16;13.20;99.90
54642;DHT22;40536;53.194;5.728;2022-09-09T04:47:42;13.20;99.90
54642;DHT22;40536;53.194;5.728;2022-09-09T04:50:08;13.30;99.90
54642;DHT22;40536;53.194;5.728;2022-09-09T04:52:35;13.30;99.90
54642;DHT22;40536;53.194;5.728;2022-09-09T04:55:01;13.40;99.90
54642;DHT22;40536;53.194;5.728;2022-09-09T04:57:27;13.40;99.90
54642;DHT22;40536;53.194;5.728;2022-09-09T04:59:54;13.50;99.90
54642;DHT22;40536;53.194;5.728;2022-09-09T05:02:20;13.50;99.90
54642;DHT22;40536;53.194;5.728;2022-09-09T05:04:45;13.50;99.90
54642;DHT22;40536;53.194;5.728;2022-09-09T05:07:11;13.60;99.90
54642;DHT22;40536;53.194;5.728;2022-09-09T05:09:37;13.60;99.90
54642;DHT22;40536;53.194;5.728;2022-09-09T05:12:02;13.60;99.90
54642;DHT22;40536;53.194;5.728;2022-09-09T05:14:28;13.90;99.90
54642;DHT22;40536;53.194;5.728;2022-09-09T05:16:55;13.60;99.90
54642;DHT22;40536;53.194;5.728;2022-09-09T05:19:21;13.60;99.90
54642;DHT22;40536;53.194;5.728;2022-09-09T05:21:47;13.60;99.90
54642;DHT22;40536;53.194;5.728;2022-09-09T05:24:13;13.60;99.90
54642;DHT22;40536;53.194;5.728;2022-09-09T05:26:39;14.10;99.90
54642;DHT22;40536;53.194;5.728;2022-09-09T05:29:04;13.70;99.90
54642;DHT22;40536;53.194;5.728;2022-09-09T05:31:31;13.80;99.90
54642;DHT22;40536;53.194;5.728;2022-09-09T05:33:58;13.80;99.90
54642;DHT22;40536;53.194;5.728;2022-09-09T05:36:24;13.80;99.90
54642;DHT22;40536;53.194;5.728;2022-09-09T05:38:50;13.90;99.90
54642;DHT22;40536;53.194;5.728;2022-09-09T05:41:17;13.90;99.90
54642;DHT22;40536;53.194;5.728;2022-09-09T05:43:43;13.90;99.90
54642;DHT22;40536;53.194;5.728;2022-09-09T05:48:41;14.00;99.90
54642;DHT22;40536;53.194;5.728;2022-09-09T05:51:10;14.00;99.90
54642;DHT22;40536;53.194;5.728;2022-09-09T05:53:41;14.10;99.90
54642;DHT22;40536;53.194;5.728;2022-09-09T05:56:15;14.10;99.90
54642;DHT22;40536;53.194;5.728;2022-09-09T05:58:43;14.10;99.90
54642;DHT22;40536;53.194;5.728;2022-09-09T06:01:23;14.20;99.90
54642;DHT22;40536;53.194;5.728;2022-09-09T06:03:50;14.30;99.90
54642;DHT22;40536;53.194;5.728;2022-09-09T06:06:19;14.30;99.90
54642;DHT22;40536;53.194;5.728;2022-09-09T06:08:51;14.40;99.90
54642;DHT22;40536;53.194;5.728;2022-09-09T06:11:20;14.50;99.90
54642;DHT22;40536;53.194;5.728;2022-09-09T06:13:47;14.50;99.90
54642;DHT22;40536;53.194;5.728;2022-09-09T06:16:18;14.60;99.90
54642;DHT22;40536;53.194;5.728;2022-09-09T06:18:44;14.60;99.90
54642;DHT22;40536;53.194;5.728;2022-09-09T06:21:17;14.70;99.90
54642;DHT22;40536;53.194;5.728;2022-09-09T06:23:44;14.70;99.90
54642;DHT22;40536;53.194;5.728;2022-09-09T06:26:15;14.80;99.90
54642;DHT22;40536;53.194;5.728;2022-09-09T06:28:42;14.80;99.90
54642;DHT22;40536;53.194;5.728;2022-09-09T06:31:10;14.80;99.90
54642;DHT22;40536;53.194;5.728;2022-09-09T06:33:38;14.90;99.90
54642;DHT22;40536;53.194;5.728;2022-09-09T06:36:07;14.90;99.90
54642;DHT22;40536;53.194;5.728;2022-09-09T06:38:35;14.90;99.90
54642;DHT22;40536;53.194;5.728;2022-09-09T06:41:01;14.90;99.90
54642;DHT22;40536;53.194;5.728;2022-09-09T06:43:27;14.90;99.90
54642;DHT22;40536;53.194;5.728;2022-09-09T06:45:55;14.90;99.90
54642;DHT22;40536;53.194;5.728;2022-09-09T06:48:21;14.90;99.90
54642;DHT22;40536;53.194;5.728;2022-09-09T06:50:46;14.90;99.90
54642;DHT22;40536;53.194;5.728;2022-09-09T06:53:12;14.90;99.90
54642;DHT22;40536;53.194;5.728;2022-09-09T06:55:41;14.90;99.90
54642;DHT22;40536;53.194;5.728;2022-09-09T06:58:09;15.00;99.90
54642;DHT22;40536;53.194;5.728;2022-09-09T07:00:35;15.10;99.90
54642;DHT22;40536;53.194;5.728;2022-09-09T07:03:03;15.10;99.90
54642;DHT22;40536;53.194;5.728;2022-09-09T07:05:29;15.10;99.90
54642;DHT22;40536;53.194;5.728;2022-09-09T07:07:54;15.20;99.90
54642;DHT22;40536;53.194;5.728;2022-09-09T07:10:20;15.20;99.90
54642;DHT22;40536;53.194;5.728;2022-09-09T07:12:50;15.20;99.90
54642;DHT22;40536;53.194;5.728;2022-09-09T07:15:17;15.30;99.90
54642;DHT22;40536;53.194;5.728;2022-09-09T07:17:44;15.40;99.90
54642;DHT22;40536;53.194;5.728;2022-09-09T07:20:10;15.40;99.90
54642;DHT22;40536;53.194;5.728;2022-09-09T07:22:36;15.50;99.90
54642;DHT22;40536;53.194;5.728;2022-09-09T07:25:03;15.60;99.90
54642;DHT22;40536;53.194;5.728;2022-09-09T07:27:28;15.60;99.90
54642;DHT22;40536;53.194;5.728;2022-09-09T07:29:55;15.70;99.90
54642;DHT22;40536;53.194;5.728;2022-09-09T07:32:21;15.90;99.90
54642;DHT22;40536;53.194;5.728;2022-09-09T07:34:47;16.20;99.90
54642;DHT22;40536;53.194;5.728;2022-09-09T07:37:13;16.30;99.90
54642;DHT22;40536;53.194;5.728;2022-09-09T07:39:39;16.40;99.90
54642;DHT22;40536;53.194;5.728;2022-09-09T07:42:05;16.80;99.90
54642;DHT22;40536;53.194;5.728;2022-09-09T07:44:31;17.30;99.90
54642;DHT22;40536;53.194;5.728;2022-09-09T07:47:01;17.70;99.90
54642;DHT22;40536;53.194;5.728;2022-09-09T07:49:27;17.90;99.90
54642;DHT22;40536;53.194;5.728;2022-09-09T07:51:53;17.70;99.90
54642;DHT22;40536;53.194;5.728;2022-09-09T07:54:19;17.40;99.90
54642;DHT22;40536;53.194;5.728;2022-09-09T07:56:46;17.20;99.90
54642;DHT22;40536;53.194;5.728;2022-09-09T07:59:12;17.10;99.90
54642;DHT22;40536;53.194;5.728;2022-09-09T08:01:48;17.10;99.90
54642;DHT22;40536;53.194;5.728;2022-09-09T08:04:16;17.30;99.90
54642;DHT22;40536;53.194;5.728;2022-09-09T08:06:47;17.70;99.90
54642;DHT22;40536;53.194;5.728;2022-09-09T08:09:14;18.30;99.90
54642;DHT22;40536;53.194;5.728;2022-09-09T08:11:40;18.60;99.90
54642;DHT22;40536;53.194;5.728;2022-09-09T08:14:07;18.60;99.90
54642;DHT22;40536;53.194;5.728;2022-09-09T08:16:36;18.40;99.90
54642;DHT22;40536;53.194;5.728;2022-09-09T08:19:03;18.40;99.90
54642;DHT22;40536;53.194;5.728;2022-09-09T08:21:31;18.40;99.90
54642;DHT22;40536;53.194;5.728;2022-09-09T08:23:59;18.30;99.90
54642;DHT22;40536;53.194;5.728;2022-09-09T08:26:27;18.30;99.90
54642;DHT22;40536;53.194;5.728;2022-09-09T08:28:55;18.40;99.90
54642;DHT22;40536;53.194;5.728;2022-09-09T08:31:36;18.60;99.90
54642;DHT22;40536;53.194;5.728;2022-09-09T08:34:03;19.30;99.90
54642;DHT22;40536;53.194;5.728;2022-09-09T08:36:31;20.10;99.90
54642;DHT22;40536;53.194;5.728;2022-09-09T08:39:02;20.80;99.90
54642;DHT22;40536;53.194;5.728;2022-09-09T08:41:53;21.50;99.90
54642;DHT22;40536;53.194;5.728;2022-09-09T09:06:23;20.10;99.90
54642;DHT22;40536;53.194;5.728;2022-09-09T09:11:51;19.80;99.90
54642;DHT22;40536;53.194;5.728;2022-09-09T09:14:23;19.60;99.90
54642;DHT22;40536;53.194;5.728;2022-09-09T09:19:39;19.10;99.90
54642;DHT22;40536;53.194;5.728;2022-09-09T09:22:19;18.80;99.90
54642;DHT22;40536;53.194;5.728;2022-09-09T09:30:00;18.80;99.90
54642;DHT22;40536;53.194;5.728;2022-09-09T09:32:30;19.00;99.90
54642;DHT22;40536;53.194;5.728;2022-09-09T09:34:58;19.10;99.90
54642;DHT22;40536;53.194;5.728;2022-09-09T09:37:31;19.10;99.90
54642;DHT22;40536;53.194;5.728;2022-09-09T09:40:18;19.10;99.90
54642;DHT22;40536;53.194;5.728;2022-09-09T09:43:00;19.20;99.90
54642;DHT22;40536;53.194;5.728;2022-09-09T09:45:35;19.20;99.90
54642;DHT22;40536;53.194;5.728;2022-09-09T09:48:10;19.10;99.90
54642;DHT22;40536;53.194;5.728;2022-09-09T09:51:08;19.20;99.90
54642;DHT22;40536;53.194;5.728;2022-09-09T09:53:34;19.30;99.90
54642;DHT22;40536;53.194;5.728;2022-09-09T09:56:05;19.40;99.90
54642;DHT22;40536;53.194;5.728;2022-09-09T10:01:23;19.50;99.90
54642;DHT22;40536;53.194;5.728;2022-09-09T10:04:02;19.80;99.90
54642;DHT22;40536;53.194;5.728;2022-09-09T10:06:33;20.80;99.90
54642;DHT22;40536;53.194;5.728;2022-09-09T10:08:59;20.90;99.90
54642;DHT22;40536;53.194;5.728;2022-09-09T10:15:01;20.80;99.90
54642;DHT22;40536;53.194;5.728;2022-09-09T10:22:55;21.30;99.90
54642;DHT22;40536;53.194;5.728;2022-09-09T10:33:46;21.10;99.90
54642;DHT22;40536;53.194;5.728;2022-09-09T10:36:21;21.50;99.90
54642;DHT22;40536;53.194;5.728;2022-09-09T10:38:48;22.60;99.90
54642;DHT22;40536;53.194;5.728;2022-09-09T10:41:36;22.80;99.90
54642;DHT22;40536;53.194;5.728;2022-09-09T10:50:10;22.60;99.90
54642;DHT22;40536;53.194;5.728;2022-09-09T10:53:09;23.50;99.90
54642;DHT22;40536;53.194;5.728;2022-09-09T10:55:48;23.70;99.90
54642;DHT22;40536;53.194;5.728;2022-09-09T10:58:29;23.30;99.90
54642;DHT22;40536;53.194;5.728;2022-09-09T11:01:03;22.80;99.90
54642;DHT22;40536;53.194;5.728;2022-09-09T11:03:33;23.40;99.90
54642;DHT22;40536;53.194;5.728;2022-09-09T11:06:04;24.30;99.90
54642;DHT22;40536;53.194;5.728;2022-09-09T11:08:34;24.60;99.90
54642;DHT22;40536;53.194;5.728;2022-09-09T11:13:58;24.30;99.90
54642;DHT22;40536;53.194;5.728;2022-09-09T11:16:53;23.50;99.90
54642;DHT22;40536;53.194;5.728;2022-09-09T11:21:50;22.10;99.90
54642;DHT22;40536;53.194;5.728;2022-09-09T11:24:27;21.60;99.90
54642;DHT22;40536;53.194;5.728;2022-09-09T11:35:30;20.80;99.90
54642;DHT22;40536;53.194;5.728;2022-09-09T11:40:41;21.90;99.90
54642;DHT22;40536;53.194;5.728;2022-09-09T11:43:17;21.90;99.90
54642;DHT22;40536;53.194;5.728;2022-09-09T11:45:52;22.60;99.90
54642;DHT22;40536;53.194;5.728;2022-09-09T11:51:07;23.20;99.90
54642;DHT22;40536;53.194;5.728;2022-09-09T11:53:36;23.10;99.90
54642;DHT22;40536;53.194;5.728;2022-09-09T11:56:13;23.30;99.90
54642;DHT22;40536;53.194;5.728;2022-09-09T11:59:00;23.80;99.90
54642;DHT22;40536;53.194;5.728;2022-09-09T12:09:31;22.50;99.90
54642;DHT22;40536;53.194;5.728;2022-09-09T12:17:22;21.60;99.90
54642;DHT22;40536;53.194;5.728;2022-09-09T12:20:06;21.40;99.90
54642;DHT22;40536;53.194;5.728;2022-09-09T12:22:40;21.10;99.90
54642;DHT22;40536;53.194;5.728;2022-09-09T12:25:34;20.70;99.90
54642;DHT22;40536;53.194;5.728;2022-09-09T12:30:39;20.40;99.90
54642;DHT22;40536;53.194;5.728;2022-09-09T12:33:12;20.70;99.90
54642;DHT22;40536;53.194;5.728;2022-09-09T12:35:40;20.90;99.90
54642;DHT22;40536;53.194;5.728;2022-09-09T12:38:13;20.90;99.90
54642;DHT22;40536;53.194;5.728;2022-09-09T12:40:40;21.10;99.90
54642;DHT22;40536;53.194;5.728;2022-09-09T12:43:23;21.30;99.90
54642;DHT22;40536;53.194;5.728;2022-09-09T12:45:49;21.70;99.90
54642;DHT22;40536;53.194;5.728;2022-09-09T12:48:18;21.70;99.90
54642;DHT22;40536;53.194;5.728;2022-09-09T12:50:50;21.70;99.90
54642;DHT22;40536;53.194;5.728;2022-09-09T12:53:43;21.90;99.90
54642;DHT22;40536;53.194;5.728;2022-09-09T12:56:20;22.10;99.90
54642;DHT22;40536;53.194;5.728;2022-09-09T12:58:49;22.20;99.90
54642;DHT22;40536;53.194;5.728;2022-09-09T13:01:34;22.50;99.90
54642;DHT22;40536;53.194;5.728;2022-09-09T13:04:00;22.60;99.90
54642;DHT22;40536;53.194;5.728;2022-09-09T13:06:31;22.40;99.90
54642;DHT22;40536;53.194;5.728;2022-09-09T13:08:59;22.10;99.90
54642;DHT22;40536;53.194;5.728;2022-09-09T13:11:30;21.90;99.90
54642;DHT22;40536;53.194;5.728;2022-09-09T13:13:57;21.70;99.90
54642;DHT22;40536;53.194;5.728;2022-09-09T13:16:29;21.40;99.90
54642;DHT22;40536;53.194;5.728;2022-09-09T13:19:14;21.20;99.90
54642;DHT22;40536;53.194;5.728;2022-09-09T13:21:41;21.10;99.90
54642;DHT22;40536;53.194;5.728;2022-09-09T13:24:40;21.00;99.90
54642;DHT22;40536;53.194;5.728;2022-09-09T13:27:32;20.90;99.90
54642;DHT22;40536;53.194;5.728;2022-09-09T13:29:59;20.90;99.90
54642;DHT22;40536;53.194;5.728;2022-09-09T13:32:26;21.10;99.90
54642;DHT22;40536;53.194;5.728;2022-09-09T13:34:55;21.00;99.90
54642;DHT22;40536;53.194;5.728;2022-09-09T13:37:38;20.80;99.90
54642;DHT22;40536;53.194;5.728;2022-09-09T13:40:14;20.60;99.90
54642;DHT22;40536;53.194;5.728;2022-09-09T13:42:42;20.40;99.90
54642;DHT22;40536;53.194;5.728;2022-09-09T13:45:19;20.30;99.90
54642;DHT22;40536;53.194;5.728;2022-09-09T13:47:46;20.20;99.90
54642;DHT22;40536;53.194;5.728;2022-09-09T13:50:26;20.30;99.90
54642;DHT22;40536;53.194;5.728;2022-09-09T13:52:57;20.40;99.90
54642;DHT22;40536;53.194;5.728;2022-09-09T13:55:25;20.60;99.90
54642;DHT22;40536;53.194;5.728;2022-09-09T13:57:53;20.90;99.90
54642;DHT22;40536;53.194;5.728;2022-09-09T14:00:20;21.30;99.90
54642;DHT22;40536;53.194;5.728;2022-09-09T14:02:46;21.60;99.90
54642;DHT22;40536;53.194;5.728;2022-09-09T14:05:12;21.80;99.90
54642;DHT22;40536;53.194;5.728;2022-09-09T14:07:39;21.80;99.90
54642;DHT22;40536;53.194;5.728;2022-09-09T14:10:06;21.90;99.90
54642;DHT22;40536;53.194;5.728;2022-09-09T14:12:32;22.10;99.90
54642;DHT22;40536;53.194;5.728;2022-09-09T14:14:58;22.20;99.90
54642;DHT22;40536;53.194;5.728;2022-09-09T14:17:25;22.20;99.90
54642;DHT22;40536;53.194;5.728;2022-09-09T14:19:54;22.10;99.90
54642;DHT22;40536;53.194;5.728;2022-09-09T14:22:21;22.10;99.90
54642;DHT22;40536;53.194;5.728;2022-09-09T14:24:47;21.90;99.90
54642;DHT22;40536;53.194;5.728;2022-09-09T14:27:13;21.80;99.90
54642;DHT22;40536;53.194;5.728;2022-09-09T14:29:38;21.70;99.90
54642;DHT22;40536;53.194;5.728;2022-09-09T14:32:04;21.70;99.90
54642;DHT22;40536;53.194;5.728;2022-09-09T14:34:30;21.60;99.90
54642;DHT22;40536;53.194;5.728;2022-09-09T14:36:59;21.70;99.90
54642;DHT22;40536;53.194;5.728;2022-09-09T14:39:25;21.70;99.90
54642;DHT22;40536;53.194;5.728;2022-09-09T14:41:50;21.80;99.90
54642;DHT22;40536;53.194;5.728;2022-09-09T14:44:16;22.00;99.90
54642;DHT22;40536;53.194;5.728;2022-09-09T14:46:42;22.00;99.90
54642;DHT22;40536;53.194;5.728;2022-09-09T14:49:10;21.80;99.90
54642;DHT22;40536;53.194;5.728;2022-09-09T14:51:36;21.40;99.90
54642;DHT22;40536;53.194;5.728;2022-09-09T14:54:02;21.10;99.90
54642;DHT22;40536;53.194;5.728;2022-09-09T14:56:30;20.20;99.90
54642;DHT22;40536;53.194;5.728;2022-09-09T14:58:58;19.50;99.90
54642;DHT22;40536;53.194;5.728;2022-09-09T15:01:26;19.10;99.90
54642;DHT22;40536;53.194;5.728;2022-09-09T15:04:00;18.80;99.90
54642;DHT22;40536;53.194;5.728;2022-09-09T15:06:28;18.50;99.90
54642;DHT22;40536;53.194;5.728;2022-09-09T15:08:58;18.20;99.90
54642;DHT22;40536;53.194;5.728;2022-09-09T15:11:45;18.10;99.90
54642;DHT22;40536;53.194;5.728;2022-09-09T15:20:55;18.10;99.90
54642;DHT22;40536;53.194;5.728;2022-09-09T15:23:29;18.30;99.90
54642;DHT22;40536;53.194;5.728;2022-09-09T15:26:08;18.50;99.90
54642;DHT22;40536;53.194;5.728;2022-09-09T15:28:50;18.60;99.90
54642;DHT22;40536;53.194;5.728;2022-09-09T15:31:21;19.00;99.90
54642;DHT22;40536;53.194;5.728;2022-09-09T15:33:52;19.00;99.90
54642;DHT22;40536;53.194;5.728;2022-09-09T15:36:20;19.00;99.90
54642;DHT22;40536;53.194;5.728;2022-09-09T15:38:47;19.00;99.90
54642;DHT22;40536;53.194;5.728;2022-09-09T15:41:14;18.80;99.90
54642;DHT22;40536;53.194;5.728;2022-09-09T15:43:47;18.60;99.90
54642;DHT22;40536;53.194;5.728;2022-09-09T15:48:42;18.30;99.90
54642;DHT22;40536;53.194;5.728;2022-09-09T15:51:10;18.30;99.90
54642;DHT22;40536;53.194;5.728;2022-09-09T15:53:37;18.40;99.90
54642;DHT22;40536;53.194;5.728;2022-09-09T15:56:05;18.40;99.90
54642;DHT22;40536;53.194;5.728;2022-09-09T15:58:32;18.40;99.90
54642;DHT22;40536;53.194;5.728;2022-09-09T16:01:06;18.30;99.90
54642;DHT22;40536;53.194;5.728;2022-09-09T16:03:35;18.30;99.90
54642;DHT22;40536;53.194;5.728;2022-09-09T16:06:02;18.20;99.90
54642;DHT22;40536;53.194;5.728;2022-09-09T16:08:47;18.10;99.90
54642;DHT22;40536;53.194;5.728;2022-09-09T16:11:41;18.00;99.90
54642;DHT22;40536;53.194;5.728;2022-09-09T16:14:07;17.90;99.90
54642;DHT22;40536;53.194;5.728;2022-09-09T16:16:33;17.90;99.90
54642;DHT22;40536;53.194;5.728;2022-09-09T16:19:06;17.80;99.90
54642;DHT22;40536;53.194;5.728;2022-09-09T16:21:34;17.70;99.90
54642;DHT22;40536;53.194;5.728;2022-09-09T16:24:02;17.70;99.90
54642;DHT22;40536;53.194;5.728;2022-09-09T16:26:31;17.60;99.90
54642;DHT22;40536;53.194;5.728;2022-09-09T16:28:57;17.60;99.90
54642;DHT22;40536;53.194;5.728;2022-09-09T16:31:25;17.40;99.90
54642;DHT22;40536;53.194;5.728;2022-09-09T16:33:52;17.40;99.90
54642;DHT22;40536;53.194;5.728;2022-09-09T16:36:23;17.30;99.90
54642;DHT22;40536;53.194;5.728;2022-09-09T16:39:01;17.20;99.90
54642;DHT22;40536;53.194;5.728;2022-09-09T16:41:28;17.00;99.90
54642;DHT22;40536;53.194;5.728;2022-09-09T16:43:54;16.80;99.90
54642;DHT22;40536;53.194;5.728;2022-09-09T16:46:21;16.70;99.90
54642;DHT22;40536;53.194;5.728;2022-09-09T16:48:48;16.60;99.90
54642;DHT22;40536;53.194;5.728;2022-09-09T16:51:20;16.50;99.90
54642;DHT22;40536;53.194;5.728;2022-09-09T16:53:46;16.40;99.90
54642;DHT22;40536;53.194;5.728;2022-09-09T16:56:21;16.40;99.90
54642;DHT22;40536;53.194;5.728;2022-09-09T16:58:55;16.40;99.90
54642;DHT22;40536;53.194;5.728;2022-09-09T17:01:22;16.50;99.90
54642;DHT22;40536;53.194;5.728;2022-09-09T17:03:53;16.50;99.90
54642;DHT22;40536;53.194;5.728;2022-09-09T17:06:19;16.50;99.90
54642;DHT22;40536;53.194;5.728;2022-09-09T17:08:45;16.50;99.90
54642;DHT22;40536;53.194;5.728;2022-09-09T17:11:12;16.40;99.90
54642;DHT22;40536;53.194;5.728;2022-09-09T17:13:41;16.40;99.90
54642;DHT22;40536;53.194;5.728;2022-09-09T17:16:07;16.30;99.90
54642;DHT22;40536;53.194;5.728;2022-09-09T17:18:34;16.20;99.90
54642;DHT22;40536;53.194;5.728;2022-09-09T17:21:05;16.10;99.90
54642;DHT22;40536;53.194;5.728;2022-09-09T17:23:32;16.00;99.90
54642;DHT22;40536;53.194;5.728;2022-09-09T17:25:59;16.00;99.90
54642;DHT22;40536;53.194;5.728;2022-09-09T17:28:26;16.00;99.90
54642;DHT22;40536;53.194;5.728;2022-09-09T17:30:57;16.00;99.90
54642;DHT22;40536;53.194;5.728;2022-09-09T17:33:26;16.00;99.90
54642;DHT22;40536;53.194;5.728;2022-09-09T17:35:52;16.00;99.90
54642;DHT22;40536;53.194;5.728;2022-09-09T17:38:18;16.00;99.90
54642;DHT22;40536;53.194;5.728;2022-09-09T17:40:46;16.00;99.90
54642;DHT22;40536;53.194;5.728;2022-09-09T17:43:27;16.00;99.90
54642;DHT22;40536;53.194;5.728;2022-09-09T17:46:28;15.10;99.90
54642;DHT22;40536;53.194;5.728;2022-09-09T17:48:59;16.00;99.90
54642;DHT22;40536;53.194;5.728;2022-09-09T17:51:29;15.90;99.90
54642;DHT22;40536;53.194;5.728;2022-09-09T17:54:05;16.50;99.90
54642;DHT22;40536;53.194;5.728;2022-09-09T17:56:33;15.80;99.90
54642;DHT22;40536;53.194;5.728;2022-09-09T17:59:03;15.40;99.90
54642;DHT22;40536;53.194;5.728;2022-09-09T18:01:47;15.80;99.90
54642;DHT22;40536;53.194;5.728;2022-09-09T18:04:24;15.80;99.90
54642;DHT22;40536;53.194;5.728;2022-09-09T18:06:52;15.70;99.90
54642;DHT22;40536;53.194;5.728;2022-09-09T18:09:25;15.70;99.90
54642;DHT22;40536;53.194;5.728;2022-09-09T18:11:53;15.70;99.90